sensor_id;sensor_type;location;lat;lon;timestamp;P1;durP1;ratioP1;P2;durP2;ratioP2
7693;SDS011;3889;48.162;11.510;2022-07-15T00:00:17;3.33;;;2.58;;
7693;SDS011;3889;48.162;11.510;2022-07-15T00:02:45;4.03;;;2.85;;
7693;SDS011;3889;48.162;11.510;2022-07-15T00:05:14;2.67;;;2.45;;
7693;SDS011;3889;48.162;11.510;2022-07-15T00:07:43;3.75;;;2.72;;
7693;SDS011;3889;48.162;11.510;2022-07-15T00:10:11;5.00;;;2.60;;
7693;SDS011;3889;48.162;11.510;2022-07-15T00:12:46;4.28;;;3.20;;
7693;SDS011;3889;48.162;11.510;2022-07-15T00:15:16;3.60;;;2.90;;
7693;SDS011;3889;48.162;11.510;2022-07-15T00:17:45;3.72;;;3.05;;
7693;SDS011;3889;48.162;11.510;2022-07-15T00:20:13;4.60;;;3.13;;
7693;SDS011;3889;48.162;11.510;2022-07-15T00:22:43;3.53;;;3.00;;
7693;SDS011;3889;48.162;11.510;2022-07-15T00:25:12;6.80;;;2.95;;
7693;SDS011;3889;48.162;11.510;2022-07-15T00:27:51;3.33;;;3.03;;
7693;SDS011;3889;48.162;11.510;2022-07-15T00:30:20;2.95;;;2.40;;
7693;SDS011;3889;48.162;11.510;2022-07-15T00:32:49;4.20;;;3.30;;
7693;SDS011;3889;48.162;11.510;2022-07-15T00:35:17;4.00;;;2.90;;
7693;SDS011;3889;48.162;11.510;2022-07-15T00:37:46;4.22;;;3.00;;
7693;SDS011;3889;48.162;11.510;2022-07-15T00:40:15;3.55;;;3.00;;
7693;SDS011;3889;48.162;11.510;2022-07-15T00:42:44;3.20;;;2.90;;
7693;SDS011;3889;48.162;11.510;2022-07-15T00:45:13;3.47;;;2.83;;
7693;SDS011;3889;48.162;11.510;2022-07-15T00:47:43;3.30;;;3.00;;
7693;SDS011;3889;48.162;11.510;2022-07-15T00:50:12;3.87;;;2.93;;
7693;SDS011;3889;48.162;11.510;2022-07-15T00:52:43;4.25;;;3.05;;
7693;SDS011;3889;48.162;11.510;2022-07-15T00:55:14;4.05;;;2.92;;
7693;SDS011;3889;48.162;11.510;2022-07-15T00:57:44;5.80;;;3.28;;
7693;SDS011;3889;48.162;11.510;2022-07-15T01:00:12;5.38;;;3.20;;
7693;SDS011;3889;48.162;11.510;2022-07-15T01:02:41;4.80;;;2.95;;
7693;SDS011;3889;48.162;11.510;2022-07-15T01:05:17;4.70;;;3.07;;
7693;SDS011;3889;48.162;11.510;2022-07-15T01:07:46;5.78;;;3.40;;
7693;SDS011;3889;48.162;11.510;2022-07-15T01:10:17;5.13;;;3.28;;
7693;SDS011;3889;48.162;11.510;2022-07-15T01:12:46;5.30;;;3.30;;
7693;SDS011;3889;48.162;11.510;2022-07-15T01:15:14;5.30;;;3.50;;
7693;SDS011;3889;48.162;11.510;2022-07-15T01:17:43;5.30;;;3.67;;
7693;SDS011;3889;48.162;11.510;2022-07-15T01:20:12;5.00;;;3.40;;
7693;SDS011;3889;48.162;11.510;2022-07-15T01:22:42;4.55;;;3.80;;
7693;SDS011;3889;48.162;11.510;2022-07-15T01:25:10;5.95;;;3.78;;
7693;SDS011;3889;48.162;11.510;2022-07-15T01:27:38;6.53;;;3.77;;
7693;SDS011;3889;48.162;11.510;2022-07-15T01:30:08;5.38;;;3.72;;
7693;SDS011;3889;48.162;11.510;2022-07-15T01:32:37;6.53;;;3.90;;
7693;SDS011;3889;48.162;11.510;2022-07-15T01:35:06;4.43;;;3.90;;
7693;SDS011;3889;48.162;11.510;2022-07-15T01:37:34;4.55;;;4.05;;
7693;SDS011;3889;48.162;11.510;2022-07-15T01:40:05;4.97;;;4.00;;
7693;SDS011;3889;48.162;11.510;2022-07-15T01:42:34;4.30;;;3.70;;
7693;SDS011;3889;48.162;11.510;2022-07-15T01:45:02;5.68;;;3.80;;
7693;SDS011;3889;48.162;11.510;2022-07-15T01:47:31;5.05;;;4.20;;
7693;SDS011;3889;48.162;11.510;2022-07-15T01:49:59;5.60;;;3.83;;
7693;SDS011;3889;48.162;11.510;2022-07-15T01:52:27;6.15;;;3.72;;
7693;SDS011;3889;48.162;11.510;2022-07-15T01:54:54;3.23;;;2.90;;
7693;SDS011;3889;48.162;11.510;2022-07-15T01:57:24;4.80;;;3.55;;
7693;SDS011;3889;48.162;11.510;2022-07-15T01:59:52;6.28;;;3.53;;
7693;SDS011;3889;48.162;11.510;2022-07-15T02:02:20;4.30;;;3.20;;
7693;SDS011;3889;48.162;11.510;2022-07-15T02:04:48;7.65;;;3.63;;
7693;SDS011;3889;48.162;11.510;2022-07-15T02:07:16;4.85;;;3.22;;
7693;SDS011;3889;48.162;11.510;2022-07-15T02:09:44;4.78;;;3.22;;
7693;SDS011;3889;48.162;11.510;2022-07-15T02:12:12;5.72;;;3.40;;
7693;SDS011;3889;48.162;11.510;2022-07-15T02:14:42;4.40;;;3.60;;
7693;SDS011;3889;48.162;11.510;2022-07-15T02:17:10;6.32;;;3.47;;
7693;SDS011;3889;48.162;11.510;2022-07-15T02:19:38;4.97;;;3.35;;
7693;SDS011;3889;48.162;11.510;2022-07-15T02:22:06;5.65;;;3.60;;
7693;SDS011;3889;48.162;11.510;2022-07-15T02:24:34;5.15;;;3.53;;
7693;SDS011;3889;48.162;11.510;2022-07-15T02:27:02;4.10;;;3.35;;
7693;SDS011;3889;48.162;11.510;2022-07-15T02:29:30;5.18;;;3.50;;
7693;SDS011;3889;48.162;11.510;2022-07-15T02:31:59;4.90;;;3.38;;
7693;SDS011;3889;48.162;11.510;2022-07-15T02:34:27;3.83;;;3.22;;
7693;SDS011;3889;48.162;11.510;2022-07-15T02:36:55;5.70;;;3.80;;
7693;SDS011;3889;48.162;11.510;2022-07-15T02:39:25;4.72;;;3.47;;
7693;SDS011;3889;48.162;11.510;2022-07-15T02:41:52;3.75;;;3.03;;
7693;SDS011;3889;48.162;11.510;2022-07-15T02:44:20;4.22;;;3.47;;
7693;SDS011;3889;48.162;11.510;2022-07-15T02:46:48;4.93;;;3.50;;
7693;SDS011;3889;48.162;11.510;2022-07-15T02:49:18;7.55;;;3.58;;
7693;SDS011;3889;48.162;11.510;2022-07-15T02:51:45;5.87;;;3.60;;
7693;SDS011;3889;48.162;11.510;2022-07-15T02:54:13;4.53;;;3.33;;
7693;SDS011;3889;48.162;11.510;2022-07-15T02:56:41;5.32;;;2.88;;
7693;SDS011;3889;48.162;11.510;2022-07-15T02:59:09;4.90;;;3.00;;
7693;SDS011;3889;48.162;11.510;2022-07-15T03:01:37;4.00;;;2.78;;
7693;SDS011;3889;48.162;11.510;2022-07-15T03:04:05;4.63;;;3.10;;
7693;SDS011;3889;48.162;11.510;2022-07-15T03:06:34;6.45;;;2.90;;
7693;SDS011;3889;48.162;11.510;2022-07-15T03:09:02;5.68;;;2.83;;
7693;SDS011;3889;48.162;11.510;2022-07-15T03:11:31;4.63;;;2.80;;
7693;SDS011;3889;48.162;11.510;2022-07-15T03:13:59;3.90;;;2.50;;
7693;SDS011;3889;48.162;11.510;2022-07-15T03:16:27;6.20;;;2.47;;
7693;SDS011;3889;48.162;11.510;2022-07-15T03:18:55;4.38;;;2.65;;
7693;SDS011;3889;48.162;11.510;2022-07-15T03:21:23;4.30;;;2.30;;
7693;SDS011;3889;48.162;11.510;2022-07-15T03:23:54;4.30;;;2.45;;
7693;SDS011;3889;48.162;11.510;2022-07-15T03:26:22;4.03;;;2.60;;
7693;SDS011;3889;48.162;11.510;2022-07-15T03:28:50;4.22;;;2.42;;
7693;SDS011;3889;48.162;11.510;2022-07-15T03:31:17;3.53;;;2.10;;
7693;SDS011;3889;48.162;11.510;2022-07-15T03:33:45;3.42;;;2.05;;
7693;SDS011;3889;48.162;11.510;2022-07-15T03:36:19;4.03;;;2.22;;
7693;SDS011;3889;48.162;11.510;2022-07-15T03:38:47;5.40;;;2.38;;
7693;SDS011;3889;48.162;11.510;2022-07-15T03:41:19;4.13;;;2.33;;
7693;SDS011;3889;48.162;11.510;2022-07-15T03:43:47;4.28;;;2.22;;
7693;SDS011;3889;48.162;11.510;2022-07-15T03:46:15;3.85;;;2.30;;
7693;SDS011;3889;48.162;11.510;2022-07-15T03:48:43;3.00;;;2.00;;
7693;SDS011;3889;48.162;11.510;2022-07-15T03:51:11;3.67;;;2.10;;
7693;SDS011;3889;48.162;11.510;2022-07-15T03:53:39;5.35;;;2.58;;
7693;SDS011;3889;48.162;11.510;2022-07-15T03:56:07;4.03;;;2.20;;
7693;SDS011;3889;48.162;11.510;2022-07-15T03:58:36;3.55;;;1.98;;
7693;SDS011;3889;48.162;11.510;2022-07-15T04:01:04;3.97;;;1.98;;
7693;SDS011;3889;48.162;11.510;2022-07-15T04:03:32;3.47;;;2.08;;
7693;SDS011;3889;48.162;11.510;2022-07-15T04:06:00;5.60;;;2.50;;
7693;SDS011;3889;48.162;11.510;2022-07-15T04:08:28;4.40;;;2.20;;
7693;SDS011;3889;48.162;11.510;2022-07-15T04:10:56;5.35;;;2.08;;
7693;SDS011;3889;48.162;11.510;2022-07-15T04:13:24;2.80;;;2.05;;
7693;SDS011;3889;48.162;11.510;2022-07-15T04:15:53;5.90;;;2.50;;
7693;SDS011;3889;48.162;11.510;2022-07-15T04:18:21;4.20;;;2.20;;
7693;SDS011;3889;48.162;11.510;2022-07-15T04:20:49;3.60;;;2.13;;
7693;SDS011;3889;48.162;11.510;2022-07-15T04:23:17;4.97;;;2.10;;
7693;SDS011;3889;48.162;11.510;2022-07-15T04:25:45;5.32;;;2.30;;
7693;SDS011;3889;48.162;11.510;2022-07-15T04:28:13;5.38;;;2.58;;
7693;SDS011;3889;48.162;11.510;2022-07-15T04:30:41;5.25;;;2.20;;
7693;SDS011;3889;48.162;11.510;2022-07-15T04:33:10;4.60;;;2.30;;
7693;SDS011;3889;48.162;11.510;2022-07-15T04:35:38;5.90;;;2.20;;
7693;SDS011;3889;48.162;11.510;2022-07-15T04:38:06;6.63;;;2.10;;
7693;SDS011;3889;48.162;11.510;2022-07-15T04:40:34;4.60;;;1.98;;
7693;SDS011;3889;48.162;11.510;2022-07-15T04:43:09;5.60;;;2.30;;
7693;SDS011;3889;48.162;11.510;2022-07-15T04:45:37;3.60;;;2.03;;
7693;SDS011;3889;48.162;11.510;2022-07-15T04:48:05;3.10;;;2.20;;
7693;SDS011;3889;48.162;11.510;2022-07-15T04:50:55;3.75;;;2.17;;
7693;SDS011;3889;48.162;11.510;2022-07-15T04:53:23;5.47;;;2.08;;
7693;SDS011;3889;48.162;11.510;2022-07-15T04:55:51;4.90;;;1.80;;
7693;SDS011;3889;48.162;11.510;2022-07-15T04:58:19;4.10;;;2.17;;
7693;SDS011;3889;48.162;11.510;2022-07-15T05:00:47;5.47;;;2.40;;
7693;SDS011;3889;48.162;11.510;2022-07-15T05:03:15;3.92;;;2.17;;
7693;SDS011;3889;48.162;11.510;2022-07-15T05:05:43;5.50;;;2.50;;
7693;SDS011;3889;48.162;11.510;2022-07-15T05:08:12;5.20;;;1.90;;
7693;SDS011;3889;48.162;11.510;2022-07-15T05:10:40;3.72;;;2.10;;
7693;SDS011;3889;48.162;11.510;2022-07-15T05:13:08;3.65;;;2.13;;
7693;SDS011;3889;48.162;11.510;2022-07-15T05:15:36;3.35;;;2.00;;
7693;SDS011;3889;48.162;11.510;2022-07-15T05:18:04;4.82;;;2.38;;
7693;SDS011;3889;48.162;11.510;2022-07-15T05:20:32;4.75;;;2.38;;
7693;SDS011;3889;48.162;11.510;2022-07-15T05:23:00;4.38;;;2.22;;
7693;SDS011;3889;48.162;11.510;2022-07-15T05:25:30;6.72;;;2.50;;
7693;SDS011;3889;48.162;11.510;2022-07-15T05:27:58;4.25;;;2.28;;
7693;SDS011;3889;48.162;11.510;2022-07-15T05:30:25;5.45;;;2.30;;
7693;SDS011;3889;48.162;11.510;2022-07-15T05:32:53;5.65;;;2.45;;
7693;SDS011;3889;48.162;11.510;2022-07-15T05:35:21;3.92;;;2.17;;
7693;SDS011;3889;48.162;11.510;2022-07-15T05:37:49;3.88;;;2.03;;
7693;SDS011;3889;48.162;11.510;2022-07-15T05:40:17;5.70;;;2.15;;
7693;SDS011;3889;48.162;11.510;2022-07-15T05:42:46;3.67;;;2.05;;
7693;SDS011;3889;48.162;11.510;2022-07-15T05:45:14;3.58;;;2.30;;
7693;SDS011;3889;48.162;11.510;2022-07-15T05:47:46;4.90;;;2.20;;
7693;SDS011;3889;48.162;11.510;2022-07-15T05:50:15;3.13;;;2.20;;
7693;SDS011;3889;48.162;11.510;2022-07-15T05:52:43;3.92;;;2.00;;
7693;SDS011;3889;48.162;11.510;2022-07-15T05:55:12;3.88;;;2.20;;
7693;SDS011;3889;48.162;11.510;2022-07-15T05:57:40;4.37;;;2.47;;
7693;SDS011;3889;48.162;11.510;2022-07-15T06:00:13;5.22;;;2.20;;
7693;SDS011;3889;48.162;11.510;2022-07-15T06:02:41;4.82;;;2.20;;
7693;SDS011;3889;48.162;11.510;2022-07-15T06:05:10;4.78;;;2.22;;
7693;SDS011;3889;48.162;11.510;2022-07-15T06:07:38;4.45;;;2.03;;
7693;SDS011;3889;48.162;11.510;2022-07-15T06:10:06;4.25;;;2.22;;
7693;SDS011;3889;48.162;11.510;2022-07-15T06:12:34;4.13;;;2.10;;
7693;SDS011;3889;48.162;11.510;2022-07-15T06:15:02;3.60;;;2.30;;
7693;SDS011;3889;48.162;11.510;2022-07-15T06:17:33;4.82;;;1.95;;
7693;SDS011;3889;48.162;11.510;2022-07-15T06:20:01;3.30;;;2.03;;
7693;SDS011;3889;48.162;11.510;2022-07-15T06:22:37;4.38;;;1.67;;
7693;SDS011;3889;48.162;11.510;2022-07-15T06:25:05;6.78;;;2.28;;
7693;SDS011;3889;48.162;11.510;2022-07-15T06:27:34;5.35;;;1.77;;
7693;SDS011;3889;48.162;11.510;2022-07-15T06:30:02;5.18;;;1.85;;
7693;SDS011;3889;48.162;11.510;2022-07-15T06:32:31;3.72;;;2.03;;
7693;SDS011;3889;48.162;11.510;2022-07-15T06:35:00;4.40;;;1.60;;
7693;SDS011;3889;48.162;11.510;2022-07-15T06:37:28;5.00;;;1.77;;
7693;SDS011;3889;48.162;11.510;2022-07-15T06:39:56;3.50;;;1.67;;
7693;SDS011;3889;48.162;11.510;2022-07-15T06:42:23;3.72;;;1.80;;
7693;SDS011;3889;48.162;11.510;2022-07-15T06:44:51;3.13;;;1.60;;
7693;SDS011;3889;48.162;11.510;2022-07-15T06:47:19;6.00;;;1.85;;
7693;SDS011;3889;48.162;11.510;2022-07-15T06:49:48;4.30;;;1.93;;
7693;SDS011;3889;48.162;11.510;2022-07-15T06:52:17;3.30;;;1.80;;
7693;SDS011;3889;48.162;11.510;2022-07-15T06:54:45;4.05;;;1.70;;
7693;SDS011;3889;48.162;11.510;2022-07-15T06:57:13;3.97;;;1.80;;
7693;SDS011;3889;48.162;11.510;2022-07-15T06:59:45;3.28;;;1.70;;
7693;SDS011;3889;48.162;11.510;2022-07-15T07:02:13;4.38;;;1.70;;
7693;SDS011;3889;48.162;11.510;2022-07-15T07:04:42;4.40;;;1.83;;
7693;SDS011;3889;48.162;11.510;2022-07-15T07:07:12;4.63;;;1.65;;
7693;SDS011;3889;48.162;11.510;2022-07-15T07:09:40;4.28;;;1.90;;
7693;SDS011;3889;48.162;11.510;2022-07-15T07:12:08;3.83;;;1.60;;
7693;SDS011;3889;48.162;11.510;2022-07-15T07:14:36;3.60;;;1.60;;
7693;SDS011;3889;48.162;11.510;2022-07-15T07:17:04;4.80;;;1.85;;
7693;SDS011;3889;48.162;11.510;2022-07-15T07:19:32;4.30;;;1.60;;
7693;SDS011;3889;48.162;11.510;2022-07-15T07:22:00;4.60;;;1.60;;
7693;SDS011;3889;48.162;11.510;2022-07-15T07:24:29;4.80;;;1.45;;
7693;SDS011;3889;48.162;11.510;2022-07-15T07:26:57;4.97;;;1.70;;
7693;SDS011;3889;48.162;11.510;2022-07-15T07:29:32;3.45;;;1.45;;
7693;SDS011;3889;48.162;11.510;2022-07-15T07:32:00;3.05;;;1.60;;
7693;SDS011;3889;48.162;11.510;2022-07-15T07:34:28;2.33;;;1.47;;
7693;SDS011;3889;48.162;11.510;2022-07-15T07:36:56;4.37;;;1.60;;
7693;SDS011;3889;48.162;11.510;2022-07-15T07:39:24;3.20;;;1.43;;
7693;SDS011;3889;48.162;11.510;2022-07-15T07:41:53;5.43;;;1.85;;
7693;SDS011;3889;48.162;11.510;2022-07-15T07:44:21;3.30;;;1.53;;
7693;SDS011;3889;48.162;11.510;2022-07-15T07:46:49;5.60;;;1.77;;
7693;SDS011;3889;48.162;11.510;2022-07-15T07:49:17;3.38;;;1.50;;
7693;SDS011;3889;48.162;11.510;2022-07-15T07:52:00;2.92;;;1.55;;
7693;SDS011;3889;48.162;11.510;2022-07-15T07:54:28;5.80;;;1.50;;
7693;SDS011;3889;48.162;11.510;2022-07-15T07:56:58;2.78;;;1.35;;
7693;SDS011;3889;48.162;11.510;2022-07-15T07:59:26;4.03;;;1.52;;
7693;SDS011;3889;48.162;11.510;2022-07-15T08:01:53;6.72;;;1.90;;
7693;SDS011;3889;48.162;11.510;2022-07-15T08:04:21;3.83;;;1.63;;
7693;SDS011;3889;48.162;11.510;2022-07-15T08:06:50;3.88;;;1.70;;
7693;SDS011;3889;48.162;11.510;2022-07-15T08:09:18;5.60;;;2.10;;
7693;SDS011;3889;48.162;11.510;2022-07-15T08:11:46;5.82;;;1.73;;
7693;SDS011;3889;48.162;11.510;2022-07-15T08:14:15;5.43;;;1.50;;
7693;SDS011;3889;48.162;11.510;2022-07-15T08:16:44;4.15;;;1.60;;
7693;SDS011;3889;48.162;11.510;2022-07-15T08:19:13;5.93;;;1.90;;
7693;SDS011;3889;48.162;11.510;2022-07-15T08:21:43;3.83;;;2.00;;
7693;SDS011;3889;48.162;11.510;2022-07-15T08:24:11;5.03;;;2.28;;
7693;SDS011;3889;48.162;11.510;2022-07-15T08:26:39;3.13;;;1.60;;
7693;SDS011;3889;48.162;11.510;2022-07-15T08:29:07;3.17;;;1.52;;
7693;SDS011;3889;48.162;11.510;2022-07-15T08:31:36;4.53;;;1.75;;
7693;SDS011;3889;48.162;11.510;2022-07-15T08:34:05;5.60;;;2.03;;
7693;SDS011;3889;48.162;11.510;2022-07-15T08:36:34;6.80;;;2.37;;
7693;SDS011;3889;48.162;11.510;2022-07-15T08:39:02;4.75;;;2.03;;
7693;SDS011;3889;48.162;11.510;2022-07-15T08:41:33;7.83;;;4.57;;
7693;SDS011;3889;48.162;11.510;2022-07-15T08:44:03;4.68;;;2.03;;
7693;SDS011;3889;48.162;11.510;2022-07-15T08:46:32;4.57;;;2.00;;
7693;SDS011;3889;48.162;11.510;2022-07-15T08:49:04;7.63;;;2.30;;
7693;SDS011;3889;48.162;11.510;2022-07-15T08:51:34;3.95;;;2.40;;
7693;SDS011;3889;48.162;11.510;2022-07-15T08:54:04;3.00;;;2.10;;
7693;SDS011;3889;48.162;11.510;2022-07-15T08:56:32;6.75;;;2.63;;
7693;SDS011;3889;48.162;11.510;2022-07-15T08:59:02;5.07;;;2.25;;
7693;SDS011;3889;48.162;11.510;2022-07-15T09:01:31;4.63;;;2.35;;
7693;SDS011;3889;48.162;11.510;2022-07-15T09:04:00;5.00;;;2.60;;
7693;SDS011;3889;48.162;11.510;2022-07-15T09:06:34;11.18;;;2.50;;
7693;SDS011;3889;48.162;11.510;2022-07-15T09:09:25;4.13;;;2.23;;
7693;SDS011;3889;48.162;11.510;2022-07-15T09:11:56;3.35;;;2.20;;
7693;SDS011;3889;48.162;11.510;2022-07-15T09:14:40;5.97;;;2.50;;
7693;SDS011;3889;48.162;11.510;2022-07-15T09:17:23;4.28;;;2.30;;
7693;SDS011;3889;48.162;11.510;2022-07-15T09:19:55;5.38;;;2.20;;
7693;SDS011;3889;48.162;11.510;2022-07-15T09:22:26;5.43;;;2.22;;
7693;SDS011;3889;48.162;11.510;2022-07-15T09:25:04;5.75;;;2.45;;
7693;SDS011;3889;48.162;11.510;2022-07-15T09:27:34;4.80;;;2.75;;
7693;SDS011;3889;48.162;11.510;2022-07-15T09:30:13;5.20;;;2.45;;
7693;SDS011;3889;48.162;11.510;2022-07-15T09:33:04;6.78;;;2.85;;
7693;SDS011;3889;48.162;11.510;2022-07-15T09:35:51;4.40;;;2.55;;
7693;SDS011;3889;48.162;11.510;2022-07-15T09:38:34;4.25;;;2.30;;
7693;SDS011;3889;48.162;11.510;2022-07-15T09:41:15;3.90;;;2.20;;
7693;SDS011;3889;48.162;11.510;2022-07-15T09:43:49;3.83;;;2.08;;
7693;SDS011;3889;48.162;11.510;2022-07-15T09:46:19;5.28;;;2.38;;
7693;SDS011;3889;48.162;11.510;2022-07-15T09:48:48;4.93;;;2.37;;
7693;SDS011;3889;48.162;11.510;2022-07-15T09:51:17;4.45;;;2.47;;
7693;SDS011;3889;48.162;11.510;2022-07-15T09:53:48;4.30;;;2.10;;
7693;SDS011;3889;48.162;11.510;2022-07-15T09:56:18;4.28;;;2.20;;
7693;SDS011;3889;48.162;11.510;2022-07-15T09:58:52;5.75;;;2.40;;
7693;SDS011;3889;48.162;11.510;2022-07-15T10:01:20;3.65;;;2.30;;
7693;SDS011;3889;48.162;11.510;2022-07-15T10:03:49;5.88;;;2.38;;
7693;SDS011;3889;48.162;11.510;2022-07-15T10:06:19;6.47;;;2.30;;
7693;SDS011;3889;48.162;11.510;2022-07-15T10:08:50;5.63;;;2.20;;
7693;SDS011;3889;48.162;11.510;2022-07-15T10:11:19;6.50;;;2.30;;
7693;SDS011;3889;48.162;11.510;2022-07-15T10:13:54;4.97;;;2.30;;
7693;SDS011;3889;48.162;11.510;2022-07-15T10:22:53;3.47;;;1.90;;
7693;SDS011;3889;48.162;11.510;2022-07-15T10:25:35;4.63;;;2.60;;
7693;SDS011;3889;48.162;11.510;2022-07-15T10:28:20;3.08;;;1.90;;
7693;SDS011;3889;48.162;11.510;2022-07-15T10:31:12;8.48;;;2.72;;
7693;SDS011;3889;48.162;11.510;2022-07-15T10:33:42;4.13;;;2.38;;
7693;SDS011;3889;48.162;11.510;2022-07-15T10:36:09;3.70;;;2.20;;
7693;SDS011;3889;48.162;11.510;2022-07-15T10:38:38;6.53;;;2.60;;
7693;SDS011;3889;48.162;11.510;2022-07-15T10:41:08;6.90;;;3.13;;
7693;SDS011;3889;48.162;11.510;2022-07-15T10:43:38;4.72;;;2.30;;
7693;SDS011;3889;48.162;11.510;2022-07-15T10:46:19;3.75;;;2.45;;
7693;SDS011;3889;48.162;11.510;2022-07-15T10:48:52;4.78;;;2.13;;
7693;SDS011;3889;48.162;11.510;2022-07-15T10:51:43;4.72;;;2.88;;
7693;SDS011;3889;48.162;11.510;2022-07-15T10:57:08;5.32;;;2.17;;
7693;SDS011;3889;48.162;11.510;2022-07-15T10:59:37;5.25;;;2.20;;
7693;SDS011;3889;48.162;11.510;2022-07-15T11:02:11;4.43;;;1.92;;
7693;SDS011;3889;48.162;11.510;2022-07-15T11:04:44;3.72;;;2.03;;
7693;SDS011;3889;48.162;11.510;2022-07-15T11:10:13;4.97;;;2.50;;
7693;SDS011;3889;48.162;11.510;2022-07-15T11:13:01;5.53;;;2.70;;
7693;SDS011;3889;48.162;11.510;2022-07-15T11:15:31;4.97;;;2.40;;
7693;SDS011;3889;48.162;11.510;2022-07-15T11:18:00;5.90;;;2.38;;
7693;SDS011;3889;48.162;11.510;2022-07-15T11:20:37;2.78;;;1.90;;
7693;SDS011;3889;48.162;11.510;2022-07-15T11:23:08;4.13;;;2.03;;
7693;SDS011;3889;48.162;11.510;2022-07-15T11:25:46;5.25;;;2.35;;
7693;SDS011;3889;48.162;11.510;2022-07-15T11:28:16;5.45;;;2.13;;
7693;SDS011;3889;48.162;11.510;2022-07-15T11:30:45;5.13;;;2.07;;
7693;SDS011;3889;48.162;11.510;2022-07-15T11:33:17;3.10;;;2.00;;
7693;SDS011;3889;48.162;11.510;2022-07-15T11:35:46;3.88;;;2.05;;
7693;SDS011;3889;48.162;11.510;2022-07-15T11:38:17;6.40;;;2.30;;
7693;SDS011;3889;48.162;11.510;2022-07-15T11:40:51;4.00;;;2.10;;
7693;SDS011;3889;48.162;11.510;2022-07-15T11:43:39;4.72;;;2.00;;
7693;SDS011;3889;48.162;11.510;2022-07-15T11:46:25;4.28;;;2.10;;
7693;SDS011;3889;48.162;11.510;2022-07-15T11:48:55;3.40;;;1.97;;
7693;SDS011;3889;48.162;11.510;2022-07-15T11:51:24;3.90;;;2.10;;
7693;SDS011;3889;48.162;11.510;2022-07-15T11:53:55;2.38;;;2.03;;
7693;SDS011;3889;48.162;11.510;2022-07-15T11:56:24;5.93;;;2.17;;
7693;SDS011;3889;48.162;11.510;2022-07-15T11:59:04;2.75;;;2.05;;
7693;SDS011;3889;48.162;11.510;2022-07-15T12:01:33;2.65;;;1.80;;
7693;SDS011;3889;48.162;11.510;2022-07-15T12:04:01;3.95;;;2.30;;
7693;SDS011;3889;48.162;11.510;2022-07-15T12:06:35;2.70;;;2.00;;
7693;SDS011;3889;48.162;11.510;2022-07-15T12:09:03;3.88;;;2.05;;
7693;SDS011;3889;48.162;11.510;2022-07-15T12:11:34;4.32;;;2.00;;
7693;SDS011;3889;48.162;11.510;2022-07-15T12:14:06;5.60;;;3.08;;
7693;SDS011;3889;48.162;11.510;2022-07-15T12:16:40;3.78;;;2.22;;
7693;SDS011;3889;48.162;11.510;2022-07-15T12:19:12;5.23;;;2.30;;
7693;SDS011;3889;48.162;11.510;2022-07-15T12:21:42;3.08;;;1.98;;
7693;SDS011;3889;48.162;11.510;2022-07-15T12:24:12;3.28;;;2.00;;
7693;SDS011;3889;48.162;11.510;2022-07-15T12:26:43;3.58;;;2.00;;
7693;SDS011;3889;48.162;11.510;2022-07-15T12:29:26;4.05;;;2.33;;
7693;SDS011;3889;48.162;11.510;2022-07-15T12:32:15;3.25;;;1.90;;
7693;SDS011;3889;48.162;11.510;2022-07-15T12:34:52;4.22;;;2.00;;
7693;SDS011;3889;48.162;11.510;2022-07-15T12:37:22;3.80;;;2.05;;
7693;SDS011;3889;48.162;11.510;2022-07-15T12:39:55;2.90;;;2.25;;
7693;SDS011;3889;48.162;11.510;2022-07-15T12:42:24;3.17;;;2.00;;
7693;SDS011;3889;48.162;11.510;2022-07-15T12:45:07;4.38;;;2.40;;
7693;SDS011;3889;48.162;11.510;2022-07-15T12:50:26;5.13;;;2.30;;
7693;SDS011;3889;48.162;11.510;2022-07-15T12:52:55;4.32;;;1.90;;
7693;SDS011;3889;48.162;11.510;2022-07-15T12:55:24;2.83;;;2.05;;
7693;SDS011;3889;48.162;11.510;2022-07-15T12:58:02;4.57;;;2.00;;
7693;SDS011;3889;48.162;11.510;2022-07-15T13:00:32;3.42;;;2.05;;
7693;SDS011;3889;48.162;11.510;2022-07-15T13:03:01;3.47;;;2.35;;
7693;SDS011;3889;48.162;11.510;2022-07-15T13:05:32;4.82;;;2.13;;
7693;SDS011;3889;48.162;11.510;2022-07-15T13:08:01;3.13;;;2.08;;
7693;SDS011;3889;48.162;11.510;2022-07-15T13:10:29;7.03;;;1.98;;
7693;SDS011;3889;48.162;11.510;2022-07-15T13:12:58;4.28;;;2.42;;
7693;SDS011;3889;48.162;11.510;2022-07-15T13:15:26;3.80;;;2.30;;
7693;SDS011;3889;48.162;11.510;2022-07-15T13:17:55;3.08;;;2.00;;
7693;SDS011;3889;48.162;11.510;2022-07-15T13:20:24;4.22;;;2.50;;
7693;SDS011;3889;48.162;11.510;2022-07-15T13:22:52;5.47;;;2.60;;
7693;SDS011;3889;48.162;11.510;2022-07-15T13:25:21;3.10;;;2.13;;
7693;SDS011;3889;48.162;11.510;2022-07-15T13:27:48;2.83;;;2.08;;
7693;SDS011;3889;48.162;11.510;2022-07-15T13:30:17;4.53;;;2.00;;
7693;SDS011;3889;48.162;11.510;2022-07-15T13:32:45;3.05;;;1.95;;
7693;SDS011;3889;48.162;11.510;2022-07-15T13:35:15;4.50;;;2.05;;
7693;SDS011;3889;48.162;11.510;2022-07-15T13:37:44;2.83;;;2.00;;
7693;SDS011;3889;48.162;11.510;2022-07-15T13:40:12;5.22;;;2.30;;
7693;SDS011;3889;48.162;11.510;2022-07-15T13:42:41;2.42;;;1.80;;
7693;SDS011;3889;48.162;11.510;2022-07-15T13:45:10;4.22;;;2.10;;
7693;SDS011;3889;48.162;11.510;2022-07-15T13:47:38;2.85;;;1.88;;
7693;SDS011;3889;48.162;11.510;2022-07-15T13:50:07;3.10;;;2.20;;
7693;SDS011;3889;48.162;11.510;2022-07-15T13:52:56;3.35;;;2.17;;
7693;SDS011;3889;48.162;11.510;2022-07-15T13:55:26;3.85;;;2.17;;
7693;SDS011;3889;48.162;11.510;2022-07-15T13:57:54;3.97;;;2.17;;
7693;SDS011;3889;48.162;11.510;2022-07-15T14:00:23;3.40;;;2.10;;
7693;SDS011;3889;48.162;11.510;2022-07-15T14:02:52;3.40;;;2.15;;
7693;SDS011;3889;48.162;11.510;2022-07-15T14:05:22;3.95;;;2.00;;
7693;SDS011;3889;48.162;11.510;2022-07-15T14:07:51;2.92;;;2.08;;
7693;SDS011;3889;48.162;11.510;2022-07-15T14:10:20;3.85;;;2.20;;
7693;SDS011;3889;48.162;11.510;2022-07-15T14:12:48;3.30;;;2.40;;
7693;SDS011;3889;48.162;11.510;2022-07-15T14:15:17;3.15;;;1.88;;
7693;SDS011;3889;48.162;11.510;2022-07-15T14:17:51;4.35;;;2.17;;
7693;SDS011;3889;48.162;11.510;2022-07-15T14:20:19;4.57;;;2.20;;
7693;SDS011;3889;48.162;11.510;2022-07-15T14:22:47;2.60;;;1.95;;
7693;SDS011;3889;48.162;11.510;2022-07-15T14:25:15;3.05;;;2.20;;
7693;SDS011;3889;48.162;11.510;2022-07-15T14:27:45;6.13;;;2.42;;
7693;SDS011;3889;48.162;11.510;2022-07-15T14:30:13;5.87;;;2.50;;
7693;SDS011;3889;48.162;11.510;2022-07-15T14:32:44;3.22;;;2.10;;
7693;SDS011;3889;48.162;11.510;2022-07-15T14:35:13;5.32;;;2.20;;
7693;SDS011;3889;48.162;11.510;2022-07-15T14:37:41;3.03;;;2.00;;
7693;SDS011;3889;48.162;11.510;2022-07-15T14:40:08;3.83;;;2.07;;
7693;SDS011;3889;48.162;11.510;2022-07-15T14:42:36;3.03;;;2.10;;
7693;SDS011;3889;48.162;11.510;2022-07-15T14:45:07;6.03;;;2.35;;
7693;SDS011;3889;48.162;11.510;2022-07-15T14:47:35;4.32;;;2.28;;
7693;SDS011;3889;48.162;11.510;2022-07-15T14:50:03;6.60;;;2.80;;
7693;SDS011;3889;48.162;11.510;2022-07-15T14:52:32;3.58;;;2.13;;
7693;SDS011;3889;48.162;11.510;2022-07-15T14:55:00;4.25;;;2.25;;
7693;SDS011;3889;48.162;11.510;2022-07-15T14:57:29;3.17;;;2.37;;
7693;SDS011;3889;48.162;11.510;2022-07-15T14:59:57;2.95;;;2.00;;
7693;SDS011;3889;48.162;11.510;2022-07-15T15:02:26;3.45;;;2.30;;
7693;SDS011;3889;48.162;11.510;2022-07-15T15:04:54;4.63;;;2.40;;
7693;SDS011;3889;48.162;11.510;2022-07-15T15:07:22;2.40;;;2.20;;
7693;SDS011;3889;48.162;11.510;2022-07-15T15:09:50;3.08;;;2.22;;
7693;SDS011;3889;48.162;11.510;2022-07-15T15:12:18;3.27;;;2.23;;
7693;SDS011;3889;48.162;11.510;2022-07-15T15:14:46;3.95;;;2.20;;
7693;SDS011;3889;48.162;11.510;2022-07-15T15:17:14;6.72;;;2.67;;
7693;SDS011;3889;48.162;11.510;2022-07-15T15:19:43;3.72;;;2.20;;
7693;SDS011;3889;48.162;11.510;2022-07-15T15:22:11;3.08;;;2.10;;
7693;SDS011;3889;48.162;11.510;2022-07-15T15:24:39;2.83;;;2.00;;
7693;SDS011;3889;48.162;11.510;2022-07-15T15:27:07;4.70;;;2.17;;
7693;SDS011;3889;48.162;11.510;2022-07-15T15:29:37;3.15;;;2.10;;
7693;SDS011;3889;48.162;11.510;2022-07-15T15:32:05;3.90;;;2.30;;